createdAt,value
2018-12-27T00:01:08.252Z,-0.40
2018-12-27T00:03:35.492Z,-0.50
2018-12-27T00:06:02.746Z,-0.50
2018-12-27T00:08:29.979Z,-0.30
2018-12-27T00:10:57.243Z,-0.40
2018-12-27T00:13:24.459Z,-0.40
2018-12-27T00:15:51.715Z,-0.50
2018-12-27T00:18:18.972Z,-0.40
2018-12-27T00:20:46.211Z,-0.40
2018-12-27T00:23:13.495Z,-0.60
2018-12-27T00:25:40.727Z,-0.50
2018-12-27T00:28:08.086Z,-0.50
2018-12-27T00:30:35.303Z,-0.60
2018-12-27T00:33:03.247Z,-0.60
2018-12-27T00:35:30.772Z,-0.50
2018-12-27T00:37:57.999Z,-0.60
2018-12-27T00:40:25.227Z,-0.50
2018-12-27T00:42:52.779Z,-0.40
2018-12-27T00:45:20.008Z,-0.50
2018-12-27T00:47:50.508Z,-0.20
2018-12-27T00:50:17.740Z,-0.40
2018-12-27T00:52:46.093Z,-0.40
2018-12-27T00:55:13.372Z,-0.40
2018-12-27T00:57:40.664Z,-0.20
2018-12-27T01:00:08.338Z,-0.20
2018-12-27T01:02:35.631Z,-0.20
2018-12-27T01:05:02.852Z,-0.20
2018-12-27T01:07:30.083Z,-0.20
2018-12-27T01:09:57.340Z,-0.10
2018-12-27T01:12:24.543Z,-0.30
2018-12-27T01:14:51.800Z,-0.20
2018-12-27T01:17:19.067Z,-0.20
2018-12-27T01:19:46.288Z,-0.20
2018-12-27T01:22:13.575Z,-0.30
2018-12-27T01:24:40.812Z,-0.30
2018-12-27T01:27:08.030Z,-0.30
2018-12-27T01:29:35.367Z,-0.30
2018-12-27T01:32:02.621Z,-0.10
2018-12-27T01:34:29.835Z,-0.20
2018-12-27T01:36:57.112Z,-0.10
2018-12-27T01:39:24.976Z,-0.10
2018-12-27T01:41:52.190Z,-0.20
2018-12-27T01:44:19.447Z,-0.30
2018-12-27T01:46:46.655Z,-0.30
2018-12-27T01:49:13.871Z,-0.10
2018-12-27T01:51:41.119Z,-0.10
2018-12-27T01:54:08.392Z,0.00
2018-12-27T01:56:35.611Z,-0.20
2018-12-27T01:59:02.847Z,-0.20
2018-12-27T02:01:30.084Z,-0.30
2018-12-27T02:03:57.319Z,-0.20
2018-12-27T02:06:24.546Z,-0.40
2018-12-27T02:08:51.819Z,-0.40
2018-12-27T02:11:19.045Z,-0.30
2018-12-27T02:13:46.399Z,-0.40
2018-12-27T02:16:13.712Z,-0.20
2018-12-27T02:18:40.951Z,-0.20
2018-12-27T02:21:08.207Z,-0.10
2018-12-27T02:23:35.441Z,-0.10
2018-12-27T02:26:02.687Z,0.00
2018-12-27T02:28:29.919Z,0.00
2018-12-27T02:30:57.149Z,0.00
2018-12-27T02:33:24.392Z,-0.20
2018-12-27T02:35:51.627Z,-0.30
2018-12-27T02:38:18.842Z,-0.20
2018-12-27T02:40:46.059Z,-0.20
2018-12-27T02:43:13.284Z,-0.10
2018-12-27T02:45:40.561Z,-0.20
2018-12-27T02:48:07.784Z,-0.10
2018-12-27T02:50:35.028Z,-0.20
2018-12-27T02:53:02.283Z,-0.10
2018-12-27T02:55:29.567Z,-0.30
2018-12-27T02:57:56.792Z,-0.30
2018-12-27T03:00:24.027Z,-0.40
2018-12-27T03:02:51.290Z,-0.30
2018-12-27T03:05:18.519Z,-0.20
2018-12-27T03:07:45.772Z,-0.20
2018-12-27T03:10:13.116Z,-0.20
2018-12-27T03:12:40.344Z,-0.10
2018-12-27T03:15:07.587Z,-0.30
2018-12-27T03:17:34.819Z,-0.20
2018-12-27T03:20:02.065Z,-0.30
2018-12-27T03:22:29.224Z,-0.30
2018-12-27T03:24:56.477Z,-0.20
2018-12-27T03:27:23.699Z,-0.20
2018-12-27T03:29:50.943Z,-0.20
2018-12-27T03:32:18.197Z,-0.30
2018-12-27T03:34:45.486Z,-0.30
2018-12-27T03:37:12.771Z,-0.20
2018-12-27T03:39:40.015Z,-0.20
2018-12-27T03:42:07.251Z,-0.30
2018-12-27T03:44:34.504Z,-0.10
2018-12-27T03:47:02.838Z,-0.30
2018-12-27T03:49:30.063Z,-0.20
2018-12-27T03:51:57.320Z,-0.10
2018-12-27T03:54:24.565Z,-0.20
2018-12-27T03:56:51.812Z,-0.20
2018-12-27T03:59:19.023Z,-0.30
2018-12-27T04:01:46.239Z,-0.30
2018-12-27T04:04:13.509Z,-0.20
2018-12-27T04:06:40.731Z,-0.10
2018-12-27T04:09:07.983Z,-0.20
2018-12-27T04:11:35.207Z,-0.20
2018-12-27T04:14:02.537Z,-0.20
2018-12-27T04:16:29.760Z,0.00
2018-12-27T04:18:57.119Z,-0.30
2018-12-27T04:21:24.335Z,-0.20
2018-12-27T04:23:51.666Z,-0.30
2018-12-27T04:26:19.243Z,-0.40
2018-12-27T04:28:46.481Z,-0.20
2018-12-27T04:31:14.141Z,-0.30
2018-12-27T04:33:42.287Z,-0.30
2018-12-27T04:36:10.143Z,-0.20
2018-12-27T04:38:37.381Z,-0.10
2018-12-27T04:41:04.618Z,-0.20
2018-12-27T04:43:32.972Z,-0.30
2018-12-27T04:46:00.301Z,-0.30
2018-12-27T04:48:27.537Z,-0.20
2018-12-27T04:50:54.771Z,-0.20
2018-12-27T04:53:22.007Z,-0.30
2018-12-27T04:55:49.267Z,-0.30
2018-12-27T04:58:16.503Z,-0.30
2018-12-27T05:00:43.734Z,-0.10
2018-12-27T05:03:10.966Z,-0.10
2018-12-27T05:05:38.211Z,-0.20
2018-12-27T05:08:05.447Z,-0.10
2018-12-27T05:10:32.773Z,-0.10
2018-12-27T05:13:00.027Z,-0.30
2018-12-27T05:15:27.259Z,-0.30
2018-12-27T05:17:54.473Z,-0.30
2018-12-27T05:20:21.700Z,-0.30
2018-12-27T05:22:48.956Z,-0.30
2018-12-27T05:25:16.164Z,-0.30
2018-12-27T05:27:43.428Z,-0.30
2018-12-27T05:30:10.676Z,-0.30
2018-12-27T05:32:37.907Z,-0.30
2018-12-27T05:35:05.135Z,-0.30
2018-12-27T05:37:32.369Z,-0.50
2018-12-27T05:39:59.595Z,-0.30
2018-12-27T05:42:26.815Z,-0.40
2018-12-27T05:44:56.784Z,-0.40
2018-12-27T05:47:24.025Z,-0.30
2018-12-27T05:49:51.238Z,-0.30
2018-12-27T05:52:18.455Z,-0.40
2018-12-27T05:54:46.772Z,-0.30
2018-12-27T05:57:14.224Z,-0.20
2018-12-27T05:59:43.640Z,-0.10
2018-12-27T06:02:10.949Z,-0.30
2018-12-27T06:04:38.227Z,-0.20
2018-12-27T06:07:05.507Z,-0.30
2018-12-27T06:09:32.747Z,-0.20
2018-12-27T06:12:00.019Z,-0.20
2018-12-27T06:14:27.234Z,-0.30
2018-12-27T06:16:54.485Z,-0.30
2018-12-27T06:19:21.703Z,-0.10
2018-12-27T06:21:48.967Z,-0.10
2018-12-27T06:24:16.207Z,-0.20
2018-12-27T06:26:43.444Z,-0.20
2018-12-27T06:29:10.662Z,-0.20
2018-12-27T06:31:37.923Z,-0.40
2018-12-27T06:34:05.190Z,-0.40
2018-12-27T06:36:32.515Z,-0.30
2018-12-27T06:38:59.758Z,-0.20
2018-12-27T06:41:26.984Z,-0.10
2018-12-27T06:43:54.220Z,-0.20
2018-12-27T06:46:21.445Z,-0.10
2018-12-27T06:48:48.683Z,-0.10
2018-12-27T06:51:15.927Z,-0.30
2018-12-27T06:53:43.164Z,-0.20
2018-12-27T06:56:10.401Z,-0.30
2018-12-27T06:58:38.078Z,-0.40
2018-12-27T07:01:05.506Z,-0.30
2018-12-27T07:03:32.831Z,-0.30
2018-12-27T07:06:00.063Z,-0.30
2018-12-27T07:08:27.323Z,-0.30
2018-12-27T07:10:54.554Z,-0.30
2018-12-27T07:13:21.826Z,-0.20
2018-12-27T07:15:49.044Z,-0.10
2018-12-27T07:18:16.311Z,-0.40
2018-12-27T07:20:43.593Z,-0.20
2018-12-27T07:23:10.851Z,-0.30
2018-12-27T07:25:38.992Z,-0.20
2018-12-27T07:28:06.216Z,-0.20
2018-12-27T07:30:34.438Z,-0.30
2018-12-27T07:33:01.684Z,-0.20
2018-12-27T07:35:28.951Z,-0.20
2018-12-27T07:37:58.031Z,-0.30
2018-12-27T07:40:25.594Z,-0.20
2018-12-27T07:42:54.126Z,-0.10
2018-12-27T07:45:22.117Z,-0.10
2018-12-27T07:47:49.591Z,-0.10
2018-12-27T07:50:17.152Z,-0.20
2018-12-27T07:52:44.645Z,-0.10
2018-12-27T07:55:12.073Z,-0.20
2018-12-27T07:57:40.445Z,-0.30
2018-12-27T08:00:08.104Z,-0.10
2018-12-27T08:02:35.709Z,0.00
2018-12-27T08:05:04.630Z,-0.10
2018-12-27T08:07:32.511Z,-0.10
2018-12-27T08:10:00.553Z,-0.10
2018-12-27T08:12:27.889Z,-0.10
2018-12-27T08:14:55.224Z,-0.20
2018-12-27T08:17:22.472Z,-0.30
2018-12-27T08:19:49.712Z,-0.30
2018-12-27T08:22:16.944Z,-0.20
2018-12-27T08:24:44.254Z,-0.50
2018-12-27T08:27:11.574Z,-0.50
2018-12-27T08:29:38.863Z,-0.50
2018-12-27T08:32:06.142Z,-0.40
2018-12-27T08:34:33.635Z,-0.40
2018-12-27T08:37:01.038Z,-0.30
2018-12-27T08:39:28.402Z,-0.30
2018-12-27T08:41:55.700Z,-0.20
2018-12-27T08:44:22.968Z,-0.20
2018-12-27T08:46:50.278Z,-0.10
2018-12-27T08:49:17.564Z,-0.20
2018-12-27T08:51:44.842Z,-0.20
2018-12-27T08:54:12.136Z,-0.20
2018-12-27T08:56:39.628Z,0.00
2018-12-27T08:59:06.978Z,-0.10
2018-12-27T09:01:34.305Z,0.00
2018-12-27T09:04:01.675Z,0.00
2018-12-27T09:06:29.070Z,0.10
2018-12-27T09:08:56.499Z,0.20
2018-12-27T09:11:23.740Z,0.30
2018-12-27T09:13:51.102Z,0.40
2018-12-27T09:16:18.522Z,0.60
2018-12-27T09:18:45.893Z,0.60
2018-12-27T09:21:13.274Z,0.60
2018-12-27T09:23:40.690Z,0.50
2018-12-27T09:26:07.974Z,0.50
2018-12-27T09:28:35.246Z,0.70
2018-12-27T09:31:04.796Z,0.50
2018-12-27T09:33:32.151Z,0.60
2018-12-27T09:35:59.742Z,0.70
2018-12-27T09:38:27.034Z,0.50
2018-12-27T09:40:54.345Z,0.50
2018-12-27T09:43:22.195Z,0.50
2018-12-27T09:45:50.552Z,0.50
2018-12-27T09:48:17.879Z,0.60
2018-12-27T09:50:45.369Z,0.70
2018-12-27T09:53:12.850Z,0.70
2018-12-27T09:55:40.176Z,0.60
2018-12-27T09:58:07.439Z,0.60
2018-12-27T10:00:34.807Z,0.70
2018-12-27T10:03:02.219Z,0.50
2018-12-27T10:05:33.767Z,0.50
2018-12-27T10:07:58.739Z,0.70
2018-12-27T10:10:26.261Z,0.80
2018-12-27T10:12:53.562Z,0.60
2018-12-27T10:15:21.083Z,0.90
2018-12-27T10:17:50.345Z,0.80
2018-12-27T10:20:18.532Z,0.60
2018-12-27T10:22:45.873Z,0.70
2018-12-27T10:25:13.406Z,0.70
2018-12-27T10:27:40.818Z,0.70
2018-12-27T10:30:08.136Z,0.70
2018-12-27T10:32:35.549Z,0.60
2018-12-27T10:35:03.001Z,0.60
2018-12-27T10:37:30.264Z,0.80
2018-12-27T10:39:57.554Z,0.60
2018-12-27T10:42:24.868Z,0.80
2018-12-27T10:44:52.487Z,0.80
2018-12-27T10:47:20.024Z,0.90
2018-12-27T10:49:47.348Z,0.90
2018-12-27T10:52:17.990Z,0.90
2018-12-27T10:54:45.252Z,0.60
2018-12-27T10:57:18.767Z,0.60
2018-12-27T10:59:46.044Z,0.70
2018-12-27T11:02:13.327Z,0.90
2018-12-27T11:04:40.742Z,1.00
2018-12-27T11:07:09.171Z,1.00
2018-12-27T11:09:36.468Z,1.00
2018-12-27T11:12:04.002Z,1.00
2018-12-27T11:14:31.287Z,1.00
2018-12-27T11:16:58.678Z,1.10
2018-12-27T11:19:26.295Z,0.90
2018-12-27T11:21:53.595Z,0.80
2018-12-27T11:24:20.887Z,0.70
2018-12-27T11:26:49.308Z,1.00
2018-12-27T11:29:17.011Z,0.90
2018-12-27T11:31:44.370Z,0.90
2018-12-27T11:34:11.628Z,0.90
2018-12-27T11:36:38.964Z,0.80
2018-12-27T11:39:06.292Z,0.80
2018-12-27T11:41:33.648Z,0.80
2018-12-27T11:44:01.189Z,0.80
2018-12-27T11:46:28.571Z,0.60
2018-12-27T11:48:59.054Z,0.80
2018-12-27T11:51:26.458Z,0.60
2018-12-27T11:53:53.815Z,0.70
2018-12-27T11:56:21.160Z,0.70
2018-12-27T11:58:48.564Z,0.70
2018-12-27T12:01:15.932Z,0.40
2018-12-27T12:03:43.272Z,0.50
2018-12-27T12:06:10.584Z,0.70
2018-12-27T12:08:37.871Z,0.80
2018-12-27T12:11:05.253Z,0.50
2018-12-27T12:13:32.533Z,0.60
2018-12-27T12:15:59.774Z,0.80
2018-12-27T12:18:27.084Z,0.70
2018-12-27T12:20:54.385Z,0.80
2018-12-27T12:23:21.646Z,0.90
2018-12-27T12:25:49.074Z,0.90
2018-12-27T12:28:16.341Z,0.90
2018-12-27T12:30:43.717Z,0.90
2018-12-27T12:33:10.963Z,1.00
2018-12-27T12:35:38.252Z,0.90
2018-12-27T12:38:05.809Z,0.80
2018-12-27T12:40:33.165Z,0.70
2018-12-27T12:43:00.398Z,0.80
2018-12-27T12:45:27.724Z,0.90
2018-12-27T12:47:55.212Z,0.90
2018-12-27T12:50:22.538Z,0.90
2018-12-27T12:52:49.840Z,1.10
2018-12-27T12:55:17.070Z,0.80
2018-12-27T12:57:44.293Z,0.70
2018-12-27T13:00:11.811Z,0.90
2018-12-27T13:02:39.027Z,0.80
2018-12-27T13:05:06.360Z,0.70
2018-12-27T13:07:33.647Z,0.90
2018-12-27T13:10:00.924Z,1.00
2018-12-27T13:12:28.247Z,0.90
2018-12-27T13:14:55.479Z,1.00
2018-12-27T13:17:22.709Z,1.00
2018-12-27T13:19:49.955Z,1.00
2018-12-27T13:22:17.187Z,1.00
2018-12-27T13:24:44.555Z,1.00
2018-12-27T13:27:14.184Z,0.90
2018-12-27T13:29:41.471Z,0.90
2018-12-27T13:32:09.982Z,0.90
2018-12-27T13:34:38.480Z,0.70
2018-12-27T13:37:05.779Z,0.90
2018-12-27T13:39:34.695Z,0.90
2018-12-27T13:42:02.126Z,0.90
2018-12-27T13:44:29.363Z,0.70
2018-12-27T13:46:56.880Z,0.90
2018-12-27T13:49:24.465Z,0.80
2018-12-27T13:51:51.803Z,0.80
2018-12-27T13:54:19.039Z,1.00
2018-12-27T13:56:46.283Z,0.90
2018-12-27T13:59:13.683Z,0.80
2018-12-27T14:01:40.930Z,0.70
2018-12-27T14:04:08.271Z,0.70
2018-12-27T14:06:35.503Z,0.70
2018-12-27T14:09:05.267Z,0.70
2018-12-27T14:11:32.527Z,0.90
2018-12-27T14:13:59.782Z,0.70
2018-12-27T14:16:27.067Z,0.50
2018-12-27T14:18:54.336Z,0.70
2018-12-27T14:21:21.588Z,0.60
2018-12-27T14:23:48.828Z,0.60
2018-12-27T14:26:16.079Z,0.50
2018-12-27T14:28:43.375Z,0.60
2018-12-27T14:31:10.654Z,0.60
2018-12-27T14:33:37.943Z,0.50
2018-12-27T14:36:05.224Z,0.40
2018-12-27T14:38:32.522Z,0.50
2018-12-27T14:40:59.755Z,0.40
2018-12-27T14:43:27.011Z,0.30
2018-12-27T14:45:54.236Z,0.40
2018-12-27T14:48:21.543Z,0.50
2018-12-27T14:50:48.827Z,0.40
2018-12-27T14:53:16.187Z,0.40
2018-12-27T14:55:43.436Z,0.40
2018-12-27T14:58:10.658Z,0.40
2018-12-27T15:00:37.927Z,0.40
2018-12-27T15:03:05.152Z,0.40
2018-12-27T15:05:32.412Z,0.50
2018-12-27T15:07:59.668Z,0.60
2018-12-27T15:10:26.967Z,0.70
2018-12-27T15:12:54.654Z,0.40
2018-12-27T15:15:21.883Z,0.40
2018-12-27T15:17:49.095Z,0.40
2018-12-27T15:20:16.364Z,0.30
2018-12-27T15:22:43.612Z,0.40
2018-12-27T15:25:10.870Z,0.40
2018-12-27T15:27:38.145Z,0.50
2018-12-27T15:30:05.432Z,0.40
2018-12-27T15:32:34.479Z,0.40
2018-12-27T15:35:01.756Z,0.30
2018-12-27T15:37:29.161Z,0.30
2018-12-27T15:39:56.484Z,0.30
2018-12-27T15:42:23.736Z,0.20
2018-12-27T15:44:51.125Z,0.30
2018-12-27T15:47:18.368Z,0.20
2018-12-27T15:50:05.136Z,0.30
2018-12-27T15:52:32.388Z,0.10
2018-12-27T15:54:59.788Z,0.30
2018-12-27T15:57:27.029Z,0.20
2018-12-27T15:59:54.299Z,0.20
2018-12-27T16:02:21.534Z,0.40
2018-12-27T16:04:50.658Z,0.30
2018-12-27T16:07:17.923Z,0.20
2018-12-27T16:09:45.162Z,0.40
2018-12-27T16:12:12.428Z,0.20
2018-12-27T16:14:39.914Z,0.30
2018-12-27T16:17:07.324Z,0.20
2018-12-27T16:19:37.493Z,0.20
2018-12-27T16:22:04.715Z,0.20
2018-12-27T16:24:31.975Z,0.20
2018-12-27T16:26:59.235Z,0.20
2018-12-27T16:29:26.526Z,0.20
2018-12-27T16:31:53.774Z,0.10
2018-12-27T16:34:21.023Z,0.30
2018-12-27T16:36:48.305Z,0.30
2018-12-27T16:39:15.653Z,0.30
2018-12-27T16:41:42.906Z,0.00
2018-12-27T16:44:12.435Z,0.20
2018-12-27T16:46:39.691Z,0.00
2018-12-27T16:49:06.947Z,0.10
2018-12-27T16:51:34.279Z,0.10
2018-12-27T16:54:01.602Z,0.00
2018-12-27T16:56:29.952Z,0.10
2018-12-27T16:58:57.183Z,0.10
2018-12-27T17:01:24.419Z,0.20
2018-12-27T17:03:51.687Z,0.30
2018-12-27T17:06:19.032Z,0.20
2018-12-27T17:08:46.453Z,0.20
2018-12-27T17:11:13.847Z,0.20
2018-12-27T17:13:41.084Z,0.30
2018-12-27T17:16:08.340Z,0.20
2018-12-27T17:18:35.554Z,0.20
2018-12-27T17:21:02.872Z,0.20
2018-12-27T17:23:30.115Z,0.20
2018-12-27T17:25:57.360Z,0.20
2018-12-27T17:28:24.639Z,-0.10
2018-12-27T17:30:51.890Z,0.10
2018-12-27T17:33:19.140Z,0.00
2018-12-27T17:35:47.251Z,0.10
2018-12-27T17:38:35.322Z,0.10
2018-12-27T17:41:02.676Z,0.20
2018-12-27T17:43:29.927Z,0.20
2018-12-27T17:45:59.298Z,0.10
2018-12-27T17:48:27.607Z,0.10
2018-12-27T17:50:54.944Z,0.10
2018-12-27T17:53:22.250Z,0.20
2018-12-27T17:55:49.491Z,0.00
2018-12-27T17:58:16.736Z,0.10
2018-12-27T18:00:43.998Z,0.20
2018-12-27T18:03:11.293Z,0.20
2018-12-27T18:05:38.676Z,0.20
2018-12-27T18:08:05.908Z,0.20
2018-12-27T18:10:33.175Z,0.30
2018-12-27T18:13:00.399Z,0.20
2018-12-27T18:15:27.707Z,0.30
2018-12-27T18:17:55.095Z,0.30
2018-12-27T18:20:22.343Z,0.30
2018-12-27T18:22:49.580Z,0.30
2018-12-27T18:25:16.891Z,0.20
2018-12-27T18:27:44.143Z,0.30
2018-12-27T18:30:11.375Z,0.20
2018-12-27T18:32:38.632Z,0.20
2018-12-27T18:35:06.099Z,0.20
2018-12-27T18:37:37.614Z,0.10
2018-12-27T18:40:02.844Z,0.10
2018-12-27T18:42:30.109Z,0.20
2018-12-27T18:44:57.391Z,0.20
2018-12-27T18:47:24.711Z,0.30
2018-12-27T18:49:51.963Z,0.30
2018-12-27T18:52:19.220Z,0.40
2018-12-27T18:54:46.455Z,0.30
2018-12-27T18:57:13.716Z,0.30
2018-12-27T18:59:41.004Z,0.30
2018-12-27T19:02:08.257Z,0.20
2018-12-27T19:04:35.484Z,0.20
2018-12-27T19:07:02.715Z,0.40
2018-12-27T19:09:29.996Z,0.40
2018-12-27T19:12:33.919Z,0.30
2018-12-27T19:15:05.475Z,0.40
2018-12-27T19:17:39.189Z,0.50
2018-12-27T19:20:06.806Z,0.40
2018-12-27T19:23:00.731Z,0.40
2018-12-27T19:25:27.975Z,0.30
2018-12-27T19:27:55.296Z,0.40
2018-12-27T19:30:24.197Z,0.30
2018-12-27T19:32:51.533Z,0.40
2018-12-27T19:35:19.068Z,0.40
2018-12-27T19:38:05.902Z,0.30
2018-12-27T19:40:33.292Z,0.50
2018-12-27T19:43:00.549Z,0.40
2018-12-27T19:45:30.413Z,0.40
2018-12-27T19:47:57.736Z,0.50
2018-12-27T19:50:25.000Z,0.50
2018-12-27T19:52:54.082Z,0.40
2018-12-27T19:55:21.305Z,0.50
2018-12-27T19:57:50.123Z,0.40
2018-12-27T20:00:17.433Z,0.60
2018-12-27T20:02:44.662Z,0.50
2018-12-27T20:05:11.915Z,0.50
2018-12-27T20:07:39.240Z,0.50
2018-12-27T20:10:09.147Z,0.60
2018-12-27T20:12:36.394Z,0.50
2018-12-27T20:15:03.796Z,0.30
2018-12-27T20:17:31.055Z,0.40
2018-12-27T20:19:58.429Z,0.50
2018-12-27T20:22:25.744Z,0.60
2018-12-27T20:24:53.301Z,0.60
2018-12-27T20:27:20.976Z,0.50
2018-12-27T20:29:48.252Z,0.60
2018-12-27T20:32:15.617Z,0.50
2018-12-27T20:34:43.175Z,0.60
2018-12-27T20:37:10.536Z,0.60
2018-12-27T20:39:37.866Z,0.60
2018-12-27T20:42:05.230Z,0.50
2018-12-27T20:44:32.556Z,0.60
2018-12-27T20:46:59.828Z,0.60
2018-12-27T20:49:27.092Z,0.60
2018-12-27T20:51:54.315Z,0.70
2018-12-27T20:54:21.608Z,0.70
2018-12-27T20:56:48.839Z,0.50
2018-12-27T20:59:16.084Z,0.60
2018-12-27T21:01:43.459Z,0.50
2018-12-27T21:04:11.976Z,0.50
2018-12-27T21:06:39.355Z,0.60
2018-12-27T21:09:06.576Z,0.70
2018-12-27T21:11:33.823Z,0.80
2018-12-27T21:14:01.137Z,0.80
2018-12-27T21:16:28.435Z,0.50
2018-12-27T21:18:55.707Z,0.50
2018-12-27T21:21:22.956Z,0.70
2018-12-27T21:23:50.225Z,0.80
2018-12-27T21:26:17.631Z,0.70
2018-12-27T21:28:44.918Z,0.60
2018-12-27T21:31:12.197Z,0.70
2018-12-27T21:33:39.488Z,0.70
2018-12-27T21:36:06.749Z,0.70
2018-12-27T21:38:34.334Z,0.60
2018-12-27T21:41:01.565Z,0.60
2018-12-27T21:43:28.827Z,0.70
2018-12-27T21:45:56.116Z,0.80
2018-12-27T21:48:23.375Z,0.70
2018-12-27T21:50:50.613Z,0.60
2018-12-27T21:53:17.867Z,0.70
2018-12-27T21:55:45.141Z,0.60
2018-12-27T21:58:13.516Z,0.70
2018-12-27T22:00:40.826Z,0.70
2018-12-27T22:03:08.101Z,0.70
2018-12-27T22:05:35.391Z,0.70
2018-12-27T22:08:02.631Z,0.60
2018-12-27T22:10:29.875Z,0.70
2018-12-27T22:12:57.122Z,0.70
2018-12-27T22:15:24.375Z,0.60
2018-12-27T22:17:51.648Z,0.70
2018-12-27T22:20:18.890Z,0.50
2018-12-27T22:22:46.159Z,0.60
2018-12-27T22:25:13.401Z,0.40
2018-12-27T22:27:40.637Z,0.50
2018-12-27T22:30:07.909Z,0.50
2018-12-27T22:32:35.136Z,0.50
2018-12-27T22:35:02.371Z,0.60
2018-12-27T22:37:31.783Z,0.50
2018-12-27T22:39:59.020Z,0.40
2018-12-27T22:42:26.282Z,0.40
2018-12-27T22:44:53.507Z,0.60
2018-12-27T22:47:21.271Z,0.40
2018-12-27T22:49:48.559Z,0.40
2018-12-27T22:52:15.783Z,0.60
2018-12-27T22:54:43.079Z,0.30
2018-12-27T22:57:10.391Z,0.50
2018-12-27T22:59:43.673Z,0.40
2018-12-27T23:02:10.914Z,0.40
2018-12-27T23:04:38.199Z,0.50
2018-12-27T23:07:05.451Z,0.50
2018-12-27T23:09:32.707Z,0.40
2018-12-27T23:11:59.991Z,0.40
2018-12-27T23:14:27.229Z,0.40
2018-12-27T23:16:54.511Z,0.40
2018-12-27T23:19:21.771Z,0.50
2018-12-27T23:21:49.019Z,0.60
2018-12-27T23:24:16.287Z,0.60
2018-12-27T23:26:43.544Z,0.50
2018-12-27T23:29:10.783Z,0.50
2018-12-27T23:31:38.724Z,0.50
2018-12-27T23:34:06.071Z,0.60
2018-12-27T23:36:33.533Z,0.50
2018-12-27T23:39:00.799Z,0.60
2018-12-27T23:41:28.035Z,0.60
2018-12-27T23:43:55.281Z,0.50
2018-12-27T23:46:22.520Z,0.60
2018-12-27T23:48:49.762Z,0.60
2018-12-27T23:51:17.021Z,0.60
2018-12-27T23:53:44.339Z,0.50
2018-12-27T23:56:11.587Z,0.40
2018-12-27T23:58:38.845Z,0.60
